createdAt,value
2023-04-08T00:02:04.717Z,97363.91
2023-04-08T00:04:32.411Z,97368.09
2023-04-08T00:06:59.695Z,97375.25
2023-04-08T00:09:27.035Z,97364.34
2023-04-08T00:11:54.302Z,97372.63
2023-04-08T00:14:21.674Z,97365.13
2023-04-08T00:16:48.877Z,97364.00
2023-04-08T00:19:16.157Z,97360.69
2023-04-08T00:21:43.320Z,97366.25
2023-04-08T00:24:11.090Z,97362.88
2023-04-08T00:26:38.411Z,97366.84
2023-04-08T00:29:06.362Z,97375.84
2023-04-08T00:31:33.673Z,97368.44
2023-04-08T00:34:00.881Z,97372.09
2023-04-08T00:36:28.365Z,97381.31
2023-04-08T00:38:55.639Z,97372.75
2023-04-08T00:41:22.886Z,97374.22
2023-04-08T00:43:50.144Z,97383.22
2023-04-08T00:46:17.509Z,97379.25
2023-04-08T00:48:44.882Z,97382.88
2023-04-08T00:51:12.526Z,97380.59
2023-04-08T00:53:39.766Z,97382.22
2023-04-08T00:56:06.991Z,97392.31
2023-04-08T00:58:34.183Z,97390.41
2023-04-08T01:01:11.316Z,97385.94
2023-04-08T01:04:26.320Z,97387.44
2023-04-08T01:07:17.472Z,97395.31
2023-04-08T01:09:53.143Z,97388.47
2023-04-08T01:12:29.617Z,97384.03
2023-04-08T01:15:06.641Z,97393.94
2023-04-08T01:17:36.601Z,97392.09
2023-04-08T01:20:06.142Z,97395.97
2023-04-08T01:23:04.620Z,97391.53
2023-04-08T01:25:35.286Z,97392.69
2023-04-08T01:28:16.558Z,97389.47
2023-04-08T01:30:45.170Z,97394.16
2023-04-08T01:33:16.050Z,97388.34
2023-04-08T01:35:44.834Z,97390.97
2023-04-08T01:38:18.213Z,97397.44
2023-04-08T01:40:47.307Z,97395.06
2023-04-08T01:43:18.006Z,97394.28
2023-04-08T01:45:46.001Z,97391.56
2023-04-08T01:48:15.299Z,97391.31
2023-04-08T01:50:44.906Z,97393.91
2023-04-08T01:53:14.203Z,97393.91
2023-04-08T01:55:43.364Z,97403.16
2023-04-08T01:58:20.724Z,97400.28
2023-04-08T02:00:48.571Z,97393.59
2023-04-08T02:03:21.308Z,97399.19
2023-04-08T02:05:48.893Z,97406.91
2023-04-08T02:08:16.516Z,97402.47
2023-04-08T02:10:43.833Z,97399.28
2023-04-08T02:13:11.084Z,97397.44
2023-04-08T02:15:47.771Z,97407.00
2023-04-08T02:18:28.278Z,97414.63
2023-04-08T02:21:13.792Z,97415.44
2023-04-08T02:23:44.184Z,97418.63
2023-04-08T02:26:15.856Z,97415.22
2023-04-08T02:28:43.390Z,97418.88
2023-04-08T02:31:13.759Z,97422.06
2023-04-08T02:33:46.128Z,97416.69
2023-04-08T02:36:16.015Z,97413.06
2023-04-08T02:38:48.087Z,97415.66
2023-04-08T02:41:17.038Z,97408.97
2023-04-08T02:43:44.377Z,97417.25
2023-04-08T02:46:12.681Z,97417.94
2023-04-08T02:48:40.013Z,97425.00
2023-04-08T02:51:07.258Z,97414.75
2023-04-08T02:53:34.541Z,97417.63
2023-04-08T02:56:01.832Z,97417.03
2023-04-08T02:58:29.205Z,97425.34
2023-04-08T03:00:56.559Z,97426.72
2023-04-08T03:03:28.654Z,97427.16
2023-04-08T03:05:59.546Z,97429.22
2023-04-08T03:08:27.015Z,97433.88
2023-04-08T03:10:54.294Z,97428.22
2023-04-08T03:13:21.522Z,97424.78
2023-04-08T03:15:48.756Z,97424.88
2023-04-08T03:18:16.028Z,97424.78
2023-04-08T03:20:43.270Z,97438.31
2023-04-08T03:23:11.310Z,97428.19
2023-04-08T03:25:38.588Z,97430.34
2023-04-08T03:28:05.910Z,97435.94
2023-04-08T03:30:33.365Z,97436.84
2023-04-08T03:33:00.617Z,97442.41
2023-04-08T03:35:28.527Z,97444.78
2023-04-08T03:37:55.734Z,97437.16
2023-04-08T03:40:22.936Z,97451.84
2023-04-08T03:42:50.176Z,97452.75
2023-04-08T03:45:17.367Z,97450.03
2023-04-08T03:47:44.617Z,97448.19
2023-04-08T03:50:12.314Z,97448.06
2023-04-08T03:52:39.553Z,97457.94
2023-04-08T03:55:07.221Z,97464.41
2023-04-08T03:57:34.399Z,97461.72
2023-04-08T04:00:01.957Z,97461.91
2023-04-08T04:02:39.551Z,97465.72
2023-04-08T04:05:07.416Z,97470.75
2023-04-08T04:07:34.692Z,97468.72
2023-04-08T04:10:02.294Z,97472.81
2023-04-08T04:12:29.413Z,97476.47
2023-04-08T04:14:56.709Z,97482.59
2023-04-08T04:17:23.972Z,97479.41
2023-04-08T04:19:51.293Z,97486.47
2023-04-08T04:22:18.541Z,97483.97
2023-04-08T04:24:49.772Z,97489.69
2023-04-08T04:27:18.337Z,97490.59
2023-04-08T04:29:45.713Z,97486.69
2023-04-08T04:32:13.078Z,97492.41
2023-04-08T04:34:40.438Z,97490.25
2023-04-08T04:37:07.818Z,97493.56
2023-04-08T04:39:35.013Z,97500.03
2023-04-08T04:42:03.575Z,97495.94
2023-04-08T04:44:31.193Z,97509.28
2023-04-08T04:46:58.525Z,97508.69
2023-04-08T04:49:26.068Z,97510.53
2023-04-08T04:51:53.322Z,97509.03
2023-04-08T04:54:20.682Z,97514.94
2023-04-08T04:56:47.996Z,97506.41
2023-04-08T04:59:15.484Z,97511.78
2023-04-08T05:01:42.802Z,97512.66
2023-04-08T05:04:10.076Z,97511.09
2023-04-08T05:06:37.235Z,97514.13
2023-04-08T05:09:04.591Z,97517.91
2023-04-08T05:11:32.038Z,97521.91
2023-04-08T05:13:59.260Z,97524.75
2023-04-08T05:16:27.245Z,97522.81
2023-04-08T05:18:54.712Z,97523.63
2023-04-08T05:21:22.062Z,97534.13
2023-04-08T05:23:51.139Z,97533.19
2023-04-08T05:26:20.370Z,97534.78
2023-04-08T05:28:53.704Z,97534.25
2023-04-08T05:31:21.698Z,97539.38
2023-04-08T05:33:49.005Z,97544.94
2023-04-08T05:36:16.390Z,97544.13
2023-04-08T05:38:44.384Z,97545.28
2023-04-08T05:41:12.382Z,97554.25
2023-04-08T05:43:39.700Z,97559.16
2023-04-08T05:46:11.297Z,97554.50
2023-04-08T05:48:38.533Z,97557.94
2023-04-08T05:51:05.977Z,97561.69
2023-04-08T05:53:33.299Z,97556.56
2023-04-08T05:56:00.628Z,97557.81
2023-04-08T05:58:27.908Z,97560.41
2023-04-08T06:00:55.721Z,97554.84
2023-04-08T06:03:23.208Z,97560.94
2023-04-08T06:05:50.554Z,97555.38
2023-04-08T06:08:17.744Z,97567.25
2023-04-08T06:10:52.169Z,97570.66
2023-04-08T06:13:21.104Z,97569.53
2023-04-08T06:15:51.422Z,97574.44
2023-04-08T06:18:18.777Z,97580.59
2023-04-08T06:20:46.509Z,97589.00
2023-04-08T06:23:14.280Z,97592.75
2023-04-08T06:25:42.030Z,97593.06
2023-04-08T06:28:09.413Z,97592.31
2023-04-08T06:30:36.659Z,97588.94
2023-04-08T06:33:04.208Z,97586.25
2023-04-08T06:35:32.342Z,97596.84
2023-04-08T06:38:00.144Z,97601.22
2023-04-08T06:40:27.415Z,97597.09
2023-04-08T06:42:54.891Z,97599.34
2023-04-08T06:45:33.862Z,97605.16
2023-04-08T06:48:01.453Z,97604.47
2023-04-08T06:50:28.701Z,97606.44
2023-04-08T06:52:55.916Z,97603.81
2023-04-08T06:55:23.249Z,97606.97
2023-04-08T06:57:50.549Z,97612.72
2023-04-08T07:00:18.229Z,97619.69
2023-04-08T07:02:45.736Z,97628.00
2023-04-08T07:05:13.178Z,97628.13
2023-04-08T07:07:40.472Z,97637.31
2023-04-08T07:10:10.794Z,97637.53
2023-04-08T07:12:38.309Z,97639.41
2023-04-08T07:15:06.397Z,97634.50
2023-04-08T07:17:34.282Z,97646.16
2023-04-08T07:20:01.831Z,97650.66
2023-04-08T07:22:29.051Z,97651.84
2023-04-08T07:24:56.372Z,97661.25
2023-04-08T07:27:23.545Z,97662.88
2023-04-08T07:29:56.982Z,97657.03
2023-04-08T07:32:24.503Z,97660.91
2023-04-08T07:34:51.929Z,97670.38
2023-04-08T07:37:19.266Z,97662.25
2023-04-08T07:39:46.515Z,97674.78
2023-04-08T07:42:13.728Z,97667.00
2023-04-08T07:44:40.943Z,97671.44
2023-04-08T07:47:09.731Z,97675.34
2023-04-08T07:49:36.998Z,97686.81
2023-04-08T07:52:04.801Z,97685.72
2023-04-08T07:54:34.404Z,97687.22
2023-04-08T07:57:02.321Z,97686.06
2023-04-08T07:59:29.988Z,97688.22
2023-04-08T08:01:57.395Z,97703.28
2023-04-08T08:04:26.465Z,97694.44
2023-04-08T08:06:53.935Z,97704.44
2023-04-08T08:09:21.180Z,97698.97
2023-04-08T08:11:48.569Z,97692.84
2023-04-08T08:14:15.853Z,97701.38
2023-04-08T08:16:44.740Z,97698.38
2023-04-08T08:19:13.958Z,97703.06
2023-04-08T08:21:41.850Z,97701.78
2023-04-08T08:24:09.116Z,97703.69
2023-04-08T08:26:39.444Z,97710.63
2023-04-08T08:29:09.106Z,97707.63
2023-04-08T08:31:36.569Z,97714.69
2023-04-08T08:34:03.813Z,97715.06
2023-04-08T08:36:32.733Z,97711.72
2023-04-08T08:39:01.418Z,97724.56
2023-04-08T08:41:35.414Z,97727.38
2023-04-08T08:44:06.606Z,97730.03
2023-04-08T08:46:34.397Z,97730.28
2023-04-08T08:49:02.393Z,97744.09
2023-04-08T08:51:32.852Z,97728.81
2023-04-08T08:54:04.390Z,97737.81
2023-04-08T08:56:34.542Z,97736.28
2023-04-08T08:59:01.848Z,97739.31
2023-04-08T09:01:33.295Z,97744.41
2023-04-08T09:04:16.634Z,97744.66
2023-04-08T09:06:50.207Z,97744.06
2023-04-08T09:09:20.716Z,97741.19
2023-04-08T09:11:48.111Z,97753.53
2023-04-08T09:14:24.211Z,97758.91
2023-04-08T09:16:53.362Z,97757.09
2023-04-08T09:19:21.172Z,97751.38
2023-04-08T09:22:09.830Z,97763.09
2023-04-08T09:24:38.124Z,97762.69
2023-04-08T09:27:05.944Z,97761.25
2023-04-08T09:29:37.362Z,97757.44
2023-04-08T09:32:06.812Z,97768.38
2023-04-08T09:34:34.610Z,97776.34
2023-04-08T09:37:02.329Z,97777.94
2023-04-08T09:39:30.827Z,97787.31
2023-04-08T09:42:01.484Z,97774.56
2023-04-08T09:44:30.665Z,97775.75
2023-04-08T09:47:12.865Z,97781.47
2023-04-08T09:50:03.209Z,97769.75
2023-04-08T09:53:08.227Z,97777.41
2023-04-08T09:55:37.552Z,97776.06
2023-04-08T09:58:16.324Z,97779.19
2023-04-08T10:00:51.038Z,97769.69
2023-04-08T10:03:49.966Z,97767.31
2023-04-08T10:06:18.109Z,97766.34
2023-04-08T10:08:45.924Z,97771.63
2023-04-08T10:11:16.688Z,97767.50
2023-04-08T10:13:44.584Z,97785.53
2023-04-08T10:16:27.279Z,97786.97
2023-04-08T10:18:58.298Z,97788.97
2023-04-08T10:21:52.074Z,97777.03
2023-04-08T10:24:24.254Z,97771.03
2023-04-08T10:26:51.578Z,97767.91
2023-04-08T10:29:18.676Z,97767.50
2023-04-08T10:31:52.919Z,97763.88
2023-04-08T10:34:22.857Z,97763.84
2023-04-08T10:36:50.761Z,97761.91
2023-04-08T10:39:18.391Z,97760.94
2023-04-08T10:41:51.555Z,97766.44
2023-04-08T10:44:26.755Z,97765.06
2023-04-08T10:46:55.139Z,97769.53
2023-04-08T10:49:22.678Z,97767.75
2023-04-08T10:51:50.067Z,97765.47
2023-04-08T10:54:18.683Z,97763.41
2023-04-08T10:56:52.494Z,97764.97
2023-04-08T10:59:33.090Z,97764.38
2023-04-08T11:02:01.613Z,97759.53
2023-04-08T11:04:29.289Z,97764.16
2023-04-08T11:06:56.815Z,97770.63
2023-04-08T11:09:24.043Z,97760.50
2023-04-08T11:11:52.440Z,97760.72
2023-04-08T11:14:21.981Z,97760.72
2023-04-08T11:16:49.586Z,97762.72
2023-04-08T11:19:17.053Z,97768.06
2023-04-08T11:21:44.598Z,97764.41
2023-04-08T11:24:13.484Z,97754.91
2023-04-08T11:26:42.145Z,97764.16
2023-04-08T11:29:14.469Z,97776.78
2023-04-08T11:31:43.960Z,97769.28
2023-04-08T11:34:11.496Z,97768.31
2023-04-08T11:36:41.867Z,97767.91
2023-04-08T11:39:12.427Z,97760.53
2023-04-08T11:41:40.760Z,97767.03
2023-04-08T11:44:08.957Z,97766.91
2023-04-08T11:46:36.667Z,97763.28
2023-04-08T11:49:07.032Z,97758.41
2023-04-08T11:51:58.053Z,97753.66
2023-04-08T11:54:33.598Z,97745.88
2023-04-08T11:57:03.108Z,97743.56
2023-04-08T11:59:30.501Z,97740.38
2023-04-08T12:01:58.186Z,97743.22
2023-04-08T12:04:25.970Z,97734.50
2023-04-08T12:06:53.474Z,97727.13
2023-04-08T12:09:20.830Z,97728.19
2023-04-08T12:11:48.370Z,97731.63
2023-04-08T12:14:15.766Z,97730.00
2023-04-08T12:16:43.078Z,97733.69
2023-04-08T12:19:10.435Z,97729.78
2023-04-08T12:21:38.282Z,97731.59
2023-04-08T12:24:05.845Z,97734.75
2023-04-08T12:26:33.231Z,97733.22
2023-04-08T12:29:00.853Z,97728.19
2023-04-08T12:31:28.562Z,97729.75
2023-04-08T12:33:55.936Z,97731.31
2023-04-08T12:36:23.215Z,97727.31
2023-04-08T12:38:50.809Z,97731.88
2023-04-08T12:41:18.113Z,97725.25
2023-04-08T12:43:45.611Z,97727.13
2023-04-08T12:46:13.420Z,97724.97
2023-04-08T12:48:40.952Z,97731.66
2023-04-08T12:51:10.460Z,97726.56
2023-04-08T12:53:37.805Z,97725.22
2023-04-08T12:56:05.564Z,97725.66
2023-04-08T12:58:32.926Z,97732.34
2023-04-08T13:01:00.414Z,97733.94
2023-04-08T13:03:30.621Z,97729.13
2023-04-08T13:05:59.273Z,97727.28
2023-04-08T13:08:26.553Z,97722.84
2023-04-08T13:10:54.856Z,97721.56
2023-04-08T13:13:22.072Z,97727.38
2023-04-08T13:15:49.590Z,97731.56
2023-04-08T13:18:17.114Z,97721.53
2023-04-08T13:20:44.348Z,97725.00
2023-04-08T13:23:12.013Z,97726.88
2023-04-08T13:25:39.261Z,97732.97
2023-04-08T13:28:06.692Z,97727.88
2023-04-08T13:30:34.121Z,97726.03
2023-04-08T13:33:01.384Z,97733.47
2023-04-08T13:35:28.657Z,97728.50
2023-04-08T13:37:56.190Z,97734.09
2023-04-08T13:40:24.116Z,97726.66
2023-04-08T13:42:51.812Z,97732.94
2023-04-08T13:45:20.291Z,97725.03
2023-04-08T13:47:47.591Z,97732.66
2023-04-08T13:50:14.954Z,97728.94
2023-04-08T13:52:42.136Z,97719.38
2023-04-08T13:55:09.571Z,97720.56
2023-04-08T13:57:36.814Z,97723.41
2023-04-08T14:00:05.123Z,97715.09
2023-04-08T14:02:37.538Z,97719.41
2023-04-08T14:05:05.318Z,97718.16
2023-04-08T14:07:32.597Z,97709.22
2023-04-08T14:09:59.956Z,97718.13
2023-04-08T14:12:27.333Z,97717.63
2023-04-08T14:14:54.569Z,97706.72
2023-04-08T14:17:21.832Z,97712.25
2023-04-08T14:19:52.171Z,97717.50
2023-04-08T14:22:19.535Z,97717.22
2023-04-08T14:24:46.704Z,97708.16
2023-04-08T14:27:14.061Z,97714.66
2023-04-08T14:29:41.562Z,97717.25
2023-04-08T14:32:08.845Z,97715.03
2023-04-08T14:34:37.506Z,97713.88
2023-04-08T14:37:05.313Z,97717.41
2023-04-08T14:39:32.563Z,97716.31
2023-04-08T14:41:59.864Z,97719.78
2023-04-08T14:44:27.064Z,97724.75
2023-04-08T14:46:54.423Z,97723.53
2023-04-08T14:49:21.772Z,97725.06
2023-04-08T14:51:49.948Z,97721.22
2023-04-08T14:54:19.049Z,97717.91
2023-04-08T14:56:46.245Z,97713.25
2023-04-08T14:59:13.554Z,97724.06
2023-04-08T15:01:41.524Z,97718.84
2023-04-08T15:04:09.045Z,97715.84
2023-04-08T15:06:36.822Z,97728.78
2023-04-08T15:09:04.116Z,97729.84
2023-04-08T15:11:31.376Z,97726.31
2023-04-08T15:13:58.707Z,97721.63
2023-04-08T15:16:26.552Z,97722.38
2023-04-08T15:18:53.918Z,97730.84
2023-04-08T15:21:22.908Z,97723.19
2023-04-08T15:23:50.333Z,97730.41
2023-04-08T15:26:17.534Z,97742.63
2023-04-08T15:28:44.839Z,97737.63
2023-04-08T15:31:12.546Z,97736.63
2023-04-08T15:33:41.499Z,97740.28
2023-04-08T15:36:09.157Z,97739.19
2023-04-08T15:38:41.454Z,97738.69
2023-04-08T15:41:24.753Z,97747.09
2023-04-08T15:43:53.319Z,97748.81
2023-04-08T15:46:21.530Z,97743.91
2023-04-08T15:48:49.667Z,97743.94
2023-04-08T15:51:17.317Z,97744.44
2023-04-08T15:53:44.606Z,97745.78
2023-04-08T15:56:16.685Z,97751.22
2023-04-08T15:58:45.796Z,97756.72
2023-04-08T16:01:13.520Z,97768.03
2023-04-08T16:03:41.139Z,97763.94
2023-04-08T16:06:08.841Z,97773.09
2023-04-08T16:08:37.248Z,97768.69
2023-04-08T16:11:06.649Z,97774.69
2023-04-08T16:13:34.611Z,97778.47
2023-04-08T16:16:02.602Z,97774.41
2023-04-08T16:18:30.702Z,97779.72
2023-04-08T16:20:58.116Z,97778.22
2023-04-08T16:23:25.725Z,97772.84
2023-04-08T16:25:53.175Z,97780.44
2023-04-08T16:28:20.511Z,97789.63
2023-04-08T16:30:48.064Z,97780.47
2023-04-08T16:33:16.143Z,97791.34
2023-04-08T16:35:43.447Z,97791.78
2023-04-08T16:38:11.024Z,97797.03
2023-04-08T16:40:39.298Z,97799.59
2023-04-08T16:43:06.764Z,97801.47
2023-04-08T16:45:34.052Z,97802.06
2023-04-08T16:48:01.506Z,97800.28
2023-04-08T16:50:29.136Z,97797.97
2023-04-08T16:52:56.719Z,97804.91
2023-04-08T16:55:23.973Z,97803.38
2023-04-08T16:57:51.334Z,97804.69
2023-04-08T17:00:20.583Z,97806.81
2023-04-08T17:02:48.529Z,97811.09
2023-04-08T17:05:16.571Z,97818.16
2023-04-08T17:07:44.142Z,97824.41
2023-04-08T17:10:11.374Z,97817.16
2023-04-08T17:12:38.685Z,97823.16
2023-04-08T17:15:06.833Z,97824.44
2023-04-08T17:17:34.172Z,97822.69
2023-04-08T17:20:01.466Z,97825.19
2023-04-08T17:22:28.844Z,97833.06
2023-04-08T17:24:56.204Z,97828.84
2023-04-08T17:27:23.618Z,97836.69
2023-04-08T17:29:56.420Z,97840.31
2023-04-08T17:32:27.269Z,97844.94
2023-04-08T17:34:54.882Z,97842.31
2023-04-08T17:37:22.199Z,97838.41
2023-04-08T17:39:49.475Z,97851.34
2023-04-08T17:42:17.101Z,97848.44
2023-04-08T17:44:44.886Z,97860.91
2023-04-08T17:47:12.103Z,97850.63
2023-04-08T17:49:39.409Z,97860.56
2023-04-08T17:52:06.626Z,97860.78
2023-04-08T17:54:34.703Z,97862.84
2023-04-08T17:57:03.172Z,97869.69
2023-04-08T17:59:30.926Z,97867.72
2023-04-08T18:01:58.337Z,97878.91
2023-04-08T18:04:25.791Z,97877.44
2023-04-08T18:06:53.106Z,97880.19
2023-04-08T18:09:20.322Z,97878.19
2023-04-08T18:11:50.314Z,97881.53
2023-04-08T18:14:17.547Z,97895.09
2023-04-08T18:16:44.932Z,97890.88
2023-04-08T18:19:13.536Z,97894.09
2023-04-08T18:21:40.776Z,97897.97
2023-04-08T18:24:09.402Z,97894.91
2023-04-08T18:26:36.803Z,97908.13
2023-04-08T18:29:04.156Z,97908.25
2023-04-08T18:31:31.402Z,97912.34
2023-04-08T18:33:58.651Z,97911.56
2023-04-08T18:36:26.635Z,97912.84
2023-04-08T18:38:53.862Z,97922.22
2023-04-08T18:41:23.344Z,97922.91
2023-04-08T18:43:51.474Z,97919.81
2023-04-08T18:46:19.966Z,97923.63
2023-04-08T18:48:49.235Z,97919.50
2023-04-08T18:51:16.848Z,97926.00
2023-04-08T18:53:44.729Z,97926.78
2023-04-08T18:56:19.712Z,97927.25
2023-04-08T18:58:47.649Z,97923.13
2023-04-08T19:01:14.922Z,97932.06
2023-04-08T19:03:45.914Z,97923.81
2023-04-08T19:06:13.687Z,97930.78
2023-04-08T19:08:41.510Z,97924.97
2023-04-08T19:11:08.752Z,97926.66
2023-04-08T19:13:36.305Z,97928.72
2023-04-08T19:16:03.639Z,97925.72
2023-04-08T19:18:31.395Z,97928.25
2023-04-08T19:20:58.707Z,97924.50
2023-04-08T19:23:26.173Z,97926.78
2023-04-08T19:25:53.536Z,97931.00
2023-04-08T19:28:21.159Z,97923.81
2023-04-08T19:30:50.057Z,97922.53
2023-04-08T19:33:18.367Z,97927.47
2023-04-08T19:35:47.857Z,97930.31
2023-04-08T19:38:15.169Z,97929.16
2023-04-08T19:40:42.427Z,97927.94
2023-04-08T19:43:09.667Z,97920.38
2023-04-08T19:45:36.955Z,97922.56
2023-04-08T19:48:04.298Z,97924.16
2023-04-08T19:50:32.008Z,97931.59
2023-04-08T19:52:59.440Z,97928.88
2023-04-08T19:55:26.804Z,97929.22
2023-04-08T19:57:54.382Z,97936.88
2023-04-08T20:00:22.132Z,97935.00
2023-04-08T20:02:49.654Z,97937.09
2023-04-08T20:05:17.694Z,97926.47
2023-04-08T20:07:44.902Z,97924.28
2023-04-08T20:10:15.252Z,97929.22
2023-04-08T20:12:42.668Z,97933.31
2023-04-08T20:15:22.710Z,97933.91
2023-04-08T20:17:52.970Z,97927.84
2023-04-08T20:20:20.669Z,97925.44
2023-04-08T20:22:47.896Z,97935.38
2023-04-08T20:25:15.162Z,97930.47
2023-04-08T20:27:42.655Z,97934.69
2023-04-08T20:30:10.698Z,97940.28
2023-04-08T20:32:38.012Z,97935.25
2023-04-08T20:35:05.862Z,97933.31
2023-04-08T20:37:33.583Z,97931.50
2023-04-08T20:40:01.039Z,97932.50
2023-04-08T20:42:28.896Z,97934.91
2023-04-08T20:44:56.099Z,97934.47
2023-04-08T20:47:23.351Z,97945.09
2023-04-08T20:49:50.581Z,97943.38
2023-04-08T20:52:17.924Z,97943.81
2023-04-08T20:54:45.514Z,97932.50
2023-04-08T20:57:12.855Z,97937.09
2023-04-08T20:59:40.097Z,97944.63
2023-04-08T21:02:08.320Z,97941.63
2023-04-08T21:04:36.005Z,97935.38
2023-04-08T21:07:03.297Z,97938.34
2023-04-08T21:09:30.470Z,97935.00
2023-04-08T21:11:57.677Z,97936.16
2023-04-08T21:14:25.001Z,97944.28
2023-04-08T21:16:52.113Z,97937.19
2023-04-08T21:19:19.307Z,97947.25
2023-04-08T21:21:46.799Z,97946.44
2023-04-08T21:24:14.064Z,97944.97
2023-04-08T21:26:41.278Z,97945.66
2023-04-08T21:29:08.546Z,97958.44
2023-04-08T21:31:35.985Z,97942.13
2023-04-08T21:34:06.096Z,97948.53
2023-04-08T21:36:33.509Z,97947.03
2023-04-08T21:39:00.708Z,97950.44
2023-04-08T21:41:29.807Z,97948.16
2023-04-08T21:43:57.865Z,97950.44
2023-04-08T21:46:25.102Z,97955.94
2023-04-08T21:48:53.132Z,97950.56
2023-04-08T21:51:20.589Z,97948.75
2023-04-08T21:53:47.839Z,97945.06
2023-04-08T21:56:15.071Z,97942.00
2023-04-08T21:58:42.214Z,97951.25
2023-04-08T22:01:09.432Z,97948.53
2023-04-08T22:03:36.749Z,97943.38
2023-04-08T22:06:04.264Z,97946.69
2023-04-08T22:08:32.541Z,97946.44
2023-04-08T22:10:59.965Z,97944.16
2023-04-08T22:13:27.300Z,97943.94
2023-04-08T22:15:54.497Z,97946.34
2023-04-08T22:18:21.695Z,97943.72
2023-04-08T22:20:49.001Z,97938.66
2023-04-08T22:23:16.263Z,97941.06
2023-04-08T22:25:43.504Z,97942.44
2023-04-08T22:28:10.782Z,97940.16
2023-04-08T22:30:37.928Z,97941.31
2023-04-08T22:33:05.340Z,97939.25
2023-04-08T22:35:32.624Z,97936.06
2023-04-08T22:37:59.834Z,97930.81
2023-04-08T22:40:27.532Z,97928.97
2023-04-08T22:42:56.133Z,97935.50
2023-04-08T22:45:23.421Z,97937.53
2023-04-08T22:47:50.615Z,97932.06
2023-04-08T22:50:17.916Z,97939.94
2023-04-08T22:52:45.317Z,97939.72
2023-04-08T22:55:12.607Z,97942.00
2023-04-08T22:57:39.881Z,97945.88
2023-04-08T23:00:08.318Z,97951.91
2023-04-08T23:02:35.710Z,97948.75
2023-04-08T23:05:03.048Z,97945.88
2023-04-08T23:07:30.484Z,97947.38
2023-04-08T23:09:57.718Z,97938.91
2023-04-08T23:12:24.839Z,97951.81
2023-04-08T23:14:52.033Z,97945.63
2023-04-08T23:17:19.173Z,97946.88
2023-04-08T23:19:46.444Z,97942.09
2023-04-08T23:22:14.349Z,97940.72
2023-04-08T23:24:41.660Z,97943.69
2023-04-08T23:27:08.960Z,97944.75
2023-04-08T23:29:36.297Z,97942.13
2023-04-08T23:32:03.579Z,97943.47
2023-04-08T23:34:30.822Z,97933.66
2023-04-08T23:36:57.989Z,97939.50
2023-04-08T23:39:25.367Z,97932.50
2023-04-08T23:41:52.485Z,97935.72
2023-04-08T23:44:19.697Z,97937.41
2023-04-08T23:46:46.992Z,97945.41
2023-04-08T23:49:14.261Z,97941.06
2023-04-08T23:51:41.506Z,97942.91
2023-04-08T23:54:08.877Z,97941.88
2023-04-08T23:56:36.055Z,97940.97
2023-04-08T23:59:03.345Z,97933.66
